createdAt,value
2018-11-12T00:00:55.751Z,1005.92
2018-11-12T00:01:55.621Z,1006.05
2018-11-12T00:02:55.601Z,1006.05
2018-11-12T00:03:55.583Z,1006.09
2018-11-12T00:04:55.560Z,1006.09
2018-11-12T00:05:55.543Z,1006.04
2018-11-12T00:06:55.522Z,1006.06
2018-11-12T00:07:55.502Z,1006.04
2018-11-12T00:08:55.479Z,1006.05
2018-11-12T00:09:55.459Z,1005.96
2018-11-12T00:10:55.441Z,1005.96
2018-11-12T00:11:55.419Z,1005.91
2018-11-12T00:12:55.397Z,1005.95
2018-11-12T00:13:55.379Z,1005.96
2018-11-12T00:14:55.388Z,1005.94
2018-11-12T00:15:55.338Z,1005.94
2018-11-12T00:16:55.316Z,1005.94
2018-11-12T00:17:55.296Z,1006.01
2018-11-12T00:18:55.277Z,1006.04
2018-11-12T00:19:55.257Z,1006.03
2018-11-12T00:20:55.236Z,1006.08
2018-11-12T00:21:55.264Z,1006.04
2018-11-12T00:22:55.195Z,1006.02
2018-11-12T00:23:55.176Z,1005.95
2018-11-12T00:24:55.153Z,1005.88
2018-11-12T00:25:55.134Z,1005.83
2018-11-12T00:26:55.115Z,1005.80
2018-11-12T00:27:55.095Z,1005.79
2018-11-12T00:28:55.075Z,1005.75
2018-11-12T00:29:55.063Z,1005.83
2018-11-12T00:30:55.036Z,1005.88
2018-11-12T00:31:55.812Z,1005.89
2018-11-12T00:32:54.992Z,1005.86
2018-11-12T00:33:54.974Z,1005.86
2018-11-12T00:34:54.952Z,1005.89
2018-11-12T00:35:54.933Z,1005.93
2018-11-12T00:36:54.912Z,1005.97
2018-11-12T00:37:54.891Z,1005.98
2018-11-12T00:38:54.873Z,1006.00
2018-11-12T00:39:54.855Z,1006.13
2018-11-12T00:40:54.830Z,1006.17
2018-11-12T00:41:54.811Z,1006.20
2018-11-12T00:42:54.798Z,1006.18
2018-11-12T00:43:54.780Z,1006.15
2018-11-12T00:44:54.750Z,1006.15
2018-11-12T00:45:54.729Z,1006.16
2018-11-12T00:46:54.711Z,1006.14
2018-11-12T00:47:54.692Z,1006.12
2018-11-12T00:48:54.670Z,1006.18
2018-11-12T00:49:54.650Z,1006.25
2018-11-12T00:50:54.629Z,1006.21
2018-11-12T00:51:54.616Z,1006.24
2018-11-12T00:52:54.589Z,1006.23
2018-11-12T00:53:54.567Z,1006.25
2018-11-12T00:54:54.550Z,1006.28
2018-11-12T00:55:54.528Z,1006.35
2018-11-12T00:56:54.507Z,1006.40
2018-11-12T00:57:54.487Z,1006.40
2018-11-12T00:58:54.473Z,1006.47
2018-11-12T00:59:54.446Z,1006.47
2018-11-12T01:00:54.425Z,1006.46
2018-11-12T01:01:54.407Z,1006.43
2018-11-12T01:02:54.386Z,1006.40
2018-11-12T01:03:54.372Z,1006.39
2018-11-12T01:04:54.346Z,1006.33
2018-11-12T01:05:54.326Z,1006.34
2018-11-12T01:06:54.304Z,1006.39
2018-11-12T01:07:54.287Z,1006.39
2018-11-12T01:08:54.264Z,1006.34
2018-11-12T01:09:54.244Z,1006.36
2018-11-12T01:10:54.230Z,1006.40
2018-11-12T01:11:54.205Z,1006.41
2018-11-12T01:12:54.182Z,1006.46
2018-11-12T01:13:54.163Z,1006.49
2018-11-12T01:14:54.143Z,1006.53
2018-11-12T01:15:54.132Z,1006.57
2018-11-12T01:16:54.102Z,1006.60
2018-11-12T01:17:54.080Z,1006.67
2018-11-12T01:18:54.062Z,1006.59
2018-11-12T01:19:54.043Z,1006.60
2018-11-12T01:20:54.022Z,1006.57
2018-11-12T01:21:54.003Z,1006.45
2018-11-12T01:22:53.980Z,1006.40
2018-11-12T01:23:53.963Z,1006.38
2018-11-12T01:24:53.944Z,1006.38
2018-11-12T01:25:53.921Z,1006.41
2018-11-12T01:26:53.900Z,1006.42
2018-11-12T01:27:53.880Z,1006.48
2018-11-12T01:28:53.861Z,1006.52
2018-11-12T01:29:53.840Z,1006.52
2018-11-12T01:30:53.820Z,1006.51
2018-11-12T01:31:53.801Z,1006.52
2018-11-12T01:32:53.832Z,1006.53
2018-11-12T01:33:53.759Z,1006.58
2018-11-12T01:34:53.739Z,1006.60
2018-11-12T01:35:53.719Z,1006.59
2018-11-12T01:36:53.697Z,1006.52
2018-11-12T01:37:53.678Z,1006.52
2018-11-12T01:38:53.657Z,1006.55
2018-11-12T01:39:53.642Z,1006.55
2018-11-12T01:40:53.617Z,1006.53
2018-11-12T01:41:53.601Z,1006.58
2018-11-12T01:42:53.578Z,1006.55
2018-11-12T01:43:53.558Z,1006.49
2018-11-12T01:44:53.535Z,1006.50
2018-11-12T01:45:53.516Z,1006.46
2018-11-12T01:46:53.496Z,1006.44
2018-11-12T01:47:53.476Z,1006.39
2018-11-12T01:48:53.455Z,1006.45
2018-11-12T01:49:53.435Z,1006.44
2018-11-12T01:50:53.416Z,1006.46
2018-11-12T01:51:53.395Z,1006.42
2018-11-12T01:52:53.380Z,1006.43
2018-11-12T01:53:53.356Z,1006.43
2018-11-12T01:54:53.335Z,1006.42
2018-11-12T01:55:53.316Z,1006.35
2018-11-12T01:56:53.294Z,1006.37
2018-11-12T01:57:53.277Z,1006.38
2018-11-12T01:58:53.263Z,1006.43
2018-11-12T01:59:53.238Z,1006.43
2018-11-12T02:00:53.214Z,1006.43
2018-11-12T02:01:53.252Z,1006.44
2018-11-12T02:02:53.184Z,1006.43
2018-11-12T02:03:53.812Z,1006.41
2018-11-12T02:04:53.201Z,1006.44
2018-11-12T02:05:53.114Z,1006.42
2018-11-12T02:06:53.093Z,1006.46
2018-11-12T02:07:53.074Z,1006.44
2018-11-12T02:08:53.079Z,1006.39
2018-11-12T02:09:53.034Z,1006.39
2018-11-12T02:10:53.015Z,1006.37
2018-11-12T02:11:52.995Z,1006.39
2018-11-12T02:12:52.975Z,1006.36
2018-11-12T02:13:52.952Z,1006.31
2018-11-12T02:14:52.932Z,1006.30
2018-11-12T02:15:52.917Z,1006.30
2018-11-12T02:16:52.891Z,1006.28
2018-11-12T02:17:52.873Z,1006.25
2018-11-12T02:18:52.853Z,1006.18
2018-11-12T02:19:52.832Z,1006.22
2018-11-12T02:20:52.811Z,1006.19
2018-11-12T02:21:52.802Z,1006.17
2018-11-12T02:22:52.895Z,1006.06
2018-11-12T02:23:52.752Z,1006.09
2018-11-12T02:24:52.732Z,1006.10
2018-11-12T02:25:52.748Z,1006.12
2018-11-12T02:26:52.692Z,1006.14
2018-11-12T02:27:52.671Z,1006.17
2018-11-12T02:28:52.651Z,1006.15
2018-11-12T02:29:52.630Z,1006.17
2018-11-12T02:30:52.609Z,1006.18
2018-11-12T02:31:52.590Z,1006.18
2018-11-12T02:32:52.568Z,1006.21
2018-11-12T02:33:52.549Z,1006.22
2018-11-12T02:34:52.537Z,1006.28
2018-11-12T02:35:52.515Z,1006.19
2018-11-12T02:36:52.488Z,1006.24
2018-11-12T02:37:52.471Z,1006.21
2018-11-12T02:38:52.449Z,1006.18
2018-11-12T02:39:52.428Z,1006.18
2018-11-12T02:40:52.409Z,1006.16
2018-11-12T02:41:52.387Z,1006.19
2018-11-12T02:42:52.372Z,1006.21
2018-11-12T02:43:52.348Z,1006.24
2018-11-12T02:44:52.326Z,1006.29
2018-11-12T02:45:52.308Z,1006.28
2018-11-12T02:46:52.286Z,1006.28
2018-11-12T02:47:52.271Z,1006.30
2018-11-12T02:48:52.247Z,1006.22
2018-11-12T02:49:52.230Z,1006.24
2018-11-12T02:50:52.206Z,1006.23
2018-11-12T02:51:52.189Z,1006.21
2018-11-12T02:52:52.165Z,1006.18
2018-11-12T02:53:52.146Z,1006.13
2018-11-12T02:54:52.128Z,1006.14
2018-11-12T02:55:52.109Z,1006.12
2018-11-12T02:56:52.087Z,1006.11
2018-11-12T02:57:52.071Z,1006.08
2018-11-12T02:58:52.044Z,1006.05
2018-11-12T02:59:52.027Z,1006.00
2018-11-12T03:00:52.009Z,1006.00
2018-11-12T03:01:51.985Z,1006.00
2018-11-12T03:02:51.964Z,1006.01
2018-11-12T03:03:51.946Z,1005.97
2018-11-12T03:04:51.924Z,1005.97
2018-11-12T03:05:51.905Z,1005.95
2018-11-12T03:06:51.884Z,1005.93
2018-11-12T03:07:51.864Z,1005.92
2018-11-12T03:08:51.843Z,1005.92
2018-11-12T03:09:51.851Z,1005.89
2018-11-12T03:10:51.804Z,1005.83
2018-11-12T03:11:51.784Z,1005.82
2018-11-12T03:12:51.763Z,1005.81
2018-11-12T03:13:51.744Z,1005.81
2018-11-12T03:14:51.724Z,1005.85
2018-11-12T03:15:51.702Z,1005.83
2018-11-12T03:16:51.683Z,1005.88
2018-11-12T03:17:51.663Z,1005.84
2018-11-12T03:18:51.642Z,1005.82
2018-11-12T03:19:51.623Z,1005.82
2018-11-12T03:20:51.601Z,1005.80
2018-11-12T03:21:51.583Z,1005.85
2018-11-12T03:22:51.560Z,1005.86
2018-11-12T03:23:51.543Z,1005.88
2018-11-12T03:24:51.522Z,1005.92
2018-11-12T03:25:51.502Z,1005.97
2018-11-12T03:26:51.480Z,1005.98
2018-11-12T03:27:51.563Z,1005.97
2018-11-12T03:28:51.442Z,1006.01
2018-11-12T03:29:51.420Z,1006.01
2018-11-12T03:30:51.401Z,1006.03
2018-11-12T03:31:51.381Z,1006.05
2018-11-12T03:32:51.359Z,1006.05
2018-11-12T03:33:51.340Z,1006.07
2018-11-12T03:34:51.323Z,1006.09
2018-11-12T03:35:51.891Z,1006.13
2018-11-12T03:36:51.279Z,1006.17
2018-11-12T03:37:51.263Z,1006.16
2018-11-12T03:38:51.239Z,1006.20
2018-11-12T03:39:51.230Z,1006.24
2018-11-12T03:40:51.198Z,1006.23
2018-11-12T03:41:51.191Z,1006.30
2018-11-12T03:42:51.161Z,1006.30
2018-11-12T03:43:51.139Z,1006.31
2018-11-12T03:44:51.120Z,1006.30
2018-11-12T03:45:51.098Z,1006.33
2018-11-12T03:46:51.077Z,1006.31
2018-11-12T03:47:51.059Z,1006.36
2018-11-12T03:48:51.037Z,1006.35
2018-11-12T03:49:51.018Z,1006.35
2018-11-12T03:50:50.998Z,1006.36
2018-11-12T03:51:50.978Z,1006.36
2018-11-12T03:52:50.957Z,1006.37
2018-11-12T03:53:50.938Z,1006.36
2018-11-12T03:54:50.916Z,1006.36
2018-11-12T03:55:50.898Z,1006.39
2018-11-12T03:56:50.880Z,1006.39
2018-11-12T03:57:50.881Z,1006.45
2018-11-12T03:58:50.836Z,1006.51
2018-11-12T03:59:50.816Z,1006.56
2018-11-12T04:00:50.816Z,1006.57
2018-11-12T04:01:50.776Z,1006.60
2018-11-12T04:02:50.755Z,1006.60
2018-11-12T04:03:50.737Z,1006.64
2018-11-12T04:04:50.720Z,1006.70
2018-11-12T04:05:50.699Z,1006.73
2018-11-12T04:06:50.676Z,1006.73
2018-11-12T04:07:50.657Z,1006.74
2018-11-12T04:08:50.636Z,1006.70
2018-11-12T04:09:50.616Z,1006.69
2018-11-12T04:10:50.596Z,1006.70
2018-11-12T04:11:50.576Z,1006.70
2018-11-12T04:12:50.555Z,1006.69
2018-11-12T04:13:50.534Z,1006.70
2018-11-12T04:14:50.515Z,1006.67
2018-11-12T04:15:50.497Z,1006.67
2018-11-12T04:16:50.474Z,1006.72
2018-11-12T04:17:50.454Z,1006.75
2018-11-12T04:18:50.438Z,1006.76
2018-11-12T04:19:50.422Z,1006.81
2018-11-12T04:20:50.394Z,1006.82
2018-11-12T04:21:50.374Z,1006.81
2018-11-12T04:22:50.355Z,1006.82
2018-11-12T04:23:50.334Z,1006.79
2018-11-12T04:24:50.315Z,1006.83
2018-11-12T04:25:50.293Z,1006.79
2018-11-12T04:26:50.273Z,1006.77
2018-11-12T04:27:50.253Z,1006.77
2018-11-12T04:28:50.233Z,1006.81
2018-11-12T04:29:50.213Z,1006.79
2018-11-12T04:30:50.195Z,1006.82
2018-11-12T04:31:50.174Z,1006.78
2018-11-12T04:32:50.153Z,1006.75
2018-11-12T04:33:50.134Z,1006.74
2018-11-12T04:34:50.114Z,1006.70
2018-11-12T04:35:50.093Z,1006.64
2018-11-12T04:36:50.071Z,1006.61
2018-11-12T04:37:50.052Z,1006.60
2018-11-12T04:38:50.033Z,1006.62
2018-11-12T04:39:50.012Z,1006.62
2018-11-12T04:40:49.992Z,1006.67
2018-11-12T04:41:49.973Z,1006.67
2018-11-12T04:42:49.954Z,1006.69
2018-11-12T04:43:49.934Z,1006.72
2018-11-12T04:44:49.926Z,1006.70
2018-11-12T04:45:49.892Z,1006.68
2018-11-12T04:46:49.873Z,1006.65
2018-11-12T04:47:49.851Z,1006.59
2018-11-12T04:48:49.831Z,1006.63
2018-11-12T04:49:49.812Z,1006.55
2018-11-12T04:50:49.789Z,1006.49
2018-11-12T04:51:49.772Z,1006.45
2018-11-12T04:52:49.751Z,1006.45
2018-11-12T04:53:49.807Z,1006.45
2018-11-12T04:54:49.710Z,1006.45
2018-11-12T04:55:49.689Z,1006.44
2018-11-12T04:56:49.693Z,1006.46
2018-11-12T04:57:49.649Z,1006.44
2018-11-12T04:58:49.635Z,1006.40
2018-11-12T04:59:49.614Z,1006.40
2018-11-12T05:00:49.588Z,1006.40
2018-11-12T05:01:49.610Z,1006.33
2018-11-12T05:02:49.549Z,1006.32
2018-11-12T05:03:49.529Z,1006.31
2018-11-12T05:04:49.507Z,1006.30
2018-11-12T05:05:49.490Z,1006.27
2018-11-12T05:06:49.467Z,1006.28
2018-11-12T05:07:49.936Z,1006.25
2018-11-12T05:08:49.427Z,1006.26
2018-11-12T05:09:49.407Z,1006.33
2018-11-12T05:10:49.391Z,1006.33
2018-11-12T05:11:49.368Z,1006.36
2018-11-12T05:12:49.345Z,1006.35
2018-11-12T05:13:49.326Z,1006.29
2018-11-12T05:14:49.306Z,1006.28
2018-11-12T05:15:49.287Z,1006.27
2018-11-12T05:16:49.326Z,1006.24
2018-11-12T05:17:49.244Z,1006.24
2018-11-12T05:18:49.225Z,1006.25
2018-11-12T05:19:49.206Z,1006.30
2018-11-12T05:20:49.185Z,1006.25
2018-11-12T05:21:49.169Z,1006.21
2018-11-12T05:22:49.144Z,1006.21
2018-11-12T05:23:49.123Z,1006.22
2018-11-12T05:24:49.104Z,1006.19
2018-11-12T05:25:49.086Z,1006.19
2018-11-12T05:26:49.063Z,1006.18
2018-11-12T05:27:49.044Z,1006.14
2018-11-12T05:28:49.023Z,1006.09
2018-11-12T05:29:49.003Z,1006.09
2018-11-12T05:30:48.983Z,1006.04
2018-11-12T05:31:48.963Z,1006.04
2018-11-12T05:32:48.941Z,1006.07
2018-11-12T05:33:48.949Z,1006.09
2018-11-12T05:34:48.903Z,1006.16
2018-11-12T05:35:48.882Z,1006.20
2018-11-12T05:36:48.861Z,1006.21
2018-11-12T05:37:48.900Z,1006.29
2018-11-12T05:38:48.821Z,1006.35
2018-11-12T05:39:48.803Z,1006.36
2018-11-12T05:40:48.782Z,1006.42
2018-11-12T05:41:48.760Z,1006.41
2018-11-12T05:42:48.739Z,1006.42
2018-11-12T05:43:48.723Z,1006.39
2018-11-12T05:44:48.757Z,1006.32
2018-11-12T05:45:48.678Z,1006.29
2018-11-12T05:46:48.660Z,1006.30
2018-11-12T05:47:48.640Z,1006.29
2018-11-12T05:48:48.620Z,1006.29
2018-11-12T05:49:48.601Z,1006.29
2018-11-12T05:50:48.578Z,1006.35
2018-11-12T05:51:48.558Z,1006.33
2018-11-12T05:52:48.539Z,1006.33
2018-11-12T05:53:48.517Z,1006.29
2018-11-12T05:54:48.499Z,1006.27
2018-11-12T05:55:48.476Z,1006.17
2018-11-12T05:56:48.457Z,1006.17
2018-11-12T05:57:48.441Z,1006.13
2018-11-12T05:58:48.440Z,1006.13
2018-11-12T05:59:48.397Z,1006.11
2018-11-12T06:00:48.423Z,1006.16
2018-11-12T06:01:48.355Z,1006.17
2018-11-12T06:02:48.339Z,1006.20
2018-11-12T06:03:48.315Z,1006.24
2018-11-12T06:04:48.319Z,1006.32
2018-11-12T06:05:48.279Z,1006.37
2018-11-12T06:06:48.321Z,1006.39
2018-11-12T06:07:48.235Z,1006.38
2018-11-12T06:08:48.510Z,1006.40
2018-11-12T06:09:48.193Z,1006.34
2018-11-12T06:10:48.173Z,1006.28
2018-11-12T06:11:48.157Z,1006.25
2018-11-12T06:12:48.132Z,1006.24
2018-11-12T06:13:48.113Z,1006.21
2018-11-12T06:14:48.093Z,1006.20
2018-11-12T06:15:48.072Z,1006.16
2018-11-12T06:16:48.052Z,1006.13
2018-11-12T06:17:48.032Z,1006.06
2018-11-12T06:18:48.015Z,1006.04
2018-11-12T06:19:47.993Z,1006.02
2018-11-12T06:20:47.973Z,1006.06
2018-11-12T06:21:47.952Z,1006.07
2018-11-12T06:22:48.058Z,1006.05
2018-11-12T06:23:47.911Z,1006.02
2018-11-12T06:24:47.890Z,1006.00
2018-11-12T06:25:47.869Z,1005.97
2018-11-12T06:26:47.851Z,1005.99
2018-11-12T06:27:47.830Z,1005.95
2018-11-12T06:28:47.808Z,1005.94
2018-11-12T06:29:47.789Z,1005.90
2018-11-12T06:30:47.769Z,1005.90
2018-11-12T06:31:47.751Z,1005.97
2018-11-12T06:32:47.728Z,1006.00
2018-11-12T06:33:47.709Z,1006.06
2018-11-12T06:34:47.688Z,1006.13
2018-11-12T06:35:47.669Z,1006.23
2018-11-12T06:36:47.681Z,1006.34
2018-11-12T06:37:47.631Z,1006.43
2018-11-12T06:38:47.607Z,1006.40
2018-11-12T06:39:48.514Z,1006.43
2018-11-12T06:40:47.569Z,1006.37
2018-11-12T06:41:47.551Z,1006.37
2018-11-12T06:42:47.616Z,1006.36
2018-11-12T06:43:47.505Z,1006.28
2018-11-12T06:44:47.484Z,1006.29
2018-11-12T06:45:47.465Z,1006.28
2018-11-12T06:46:47.445Z,1006.27
2018-11-12T06:47:47.425Z,1006.29
2018-11-12T06:48:47.403Z,1006.31
2018-11-12T06:49:47.383Z,1006.35
2018-11-12T06:50:47.363Z,1006.37
2018-11-12T06:51:47.342Z,1006.38
2018-11-12T06:52:47.383Z,1006.36
2018-11-12T06:53:47.301Z,1006.42
2018-11-12T06:54:47.281Z,1006.45
2018-11-12T06:55:47.262Z,1006.55
2018-11-12T06:56:47.240Z,1006.56
2018-11-12T06:57:47.220Z,1006.56
2018-11-12T06:58:47.201Z,1006.54
2018-11-12T06:59:47.180Z,1006.58
2018-11-12T07:00:47.202Z,1006.66
2018-11-12T07:01:47.139Z,1006.71
2018-11-12T07:02:47.118Z,1006.60
2018-11-12T07:03:47.098Z,1006.43
2018-11-12T07:04:47.077Z,1006.31
2018-11-12T07:05:47.059Z,1006.31
2018-11-12T07:06:47.092Z,1006.47
2018-11-12T07:07:47.017Z,1006.62
2018-11-12T07:08:46.997Z,1006.60
2018-11-12T07:09:46.975Z,1006.48
2018-11-12T07:10:46.957Z,1006.38
2018-11-12T07:11:46.937Z,1006.30
2018-11-12T07:12:46.916Z,1006.33
2018-11-12T07:13:46.897Z,1006.48
2018-11-12T07:14:46.875Z,1006.54
2018-11-12T07:15:46.858Z,1006.43
2018-11-12T07:16:46.833Z,1006.38
2018-11-12T07:17:46.815Z,1006.30
2018-11-12T07:18:46.844Z,1006.33
2018-11-12T07:19:46.773Z,1006.38
2018-11-12T07:20:46.752Z,1006.55
2018-11-12T07:21:46.733Z,1006.63
2018-11-12T07:22:46.713Z,1006.63
2018-11-12T07:23:46.693Z,1006.58
2018-11-12T07:24:46.673Z,1006.51
2018-11-12T07:25:46.654Z,1006.50
2018-11-12T07:26:46.635Z,1006.52
2018-11-12T07:27:46.613Z,1006.62
2018-11-12T07:28:46.592Z,1006.69
2018-11-12T07:29:46.571Z,1006.71
2018-11-12T07:30:46.562Z,1006.68
2018-11-12T07:31:46.532Z,1006.64
2018-11-12T07:32:46.515Z,1006.65
2018-11-12T07:33:46.490Z,1006.67
2018-11-12T07:34:46.470Z,1006.71
2018-11-12T07:35:46.450Z,1006.66
2018-11-12T07:36:46.428Z,1006.61
2018-11-12T07:37:46.409Z,1006.57
2018-11-12T07:38:46.392Z,1006.50
2018-11-12T07:39:46.369Z,1006.49
2018-11-12T07:40:46.463Z,1006.47
2018-11-12T07:41:46.339Z,1006.47
2018-11-12T07:42:46.315Z,1006.47
2018-11-12T07:43:46.288Z,1006.44
2018-11-12T07:44:46.267Z,1006.39
2018-11-12T07:45:46.248Z,1006.39
2018-11-12T07:46:46.229Z,1006.43
2018-11-12T07:47:46.207Z,1006.47
2018-11-12T07:48:46.263Z,1006.41
2018-11-12T07:49:46.166Z,1006.37
2018-11-12T07:50:46.147Z,1006.33
2018-11-12T07:51:46.127Z,1006.26
2018-11-12T07:52:46.105Z,1006.22
2018-11-12T07:53:46.085Z,1006.24
2018-11-12T07:54:46.066Z,1006.30
2018-11-12T07:55:46.048Z,1006.29
2018-11-12T07:56:46.026Z,1006.25
2018-11-12T07:57:46.006Z,1006.19
2018-11-12T07:58:45.985Z,1006.14
2018-11-12T07:59:45.983Z,1006.14
2018-11-12T08:00:45.944Z,1006.12
2018-11-12T08:01:45.924Z,1006.06
2018-11-12T08:02:45.911Z,1006.10
2018-11-12T08:03:45.972Z,1006.12
2018-11-12T08:04:45.875Z,1006.15
2018-11-12T08:05:45.846Z,1006.14
2018-11-12T08:06:45.825Z,1006.15
2018-11-12T08:07:45.804Z,1006.15
2018-11-12T08:08:45.783Z,1006.11
2018-11-12T08:09:45.848Z,1006.15
2018-11-12T08:10:45.742Z,1006.08
2018-11-12T08:11:45.781Z,1006.04
2018-11-12T08:12:45.715Z,1006.04
2018-11-12T08:13:45.686Z,1006.03
2018-11-12T08:14:45.700Z,1006.03
2018-11-12T08:15:45.647Z,1006.03
2018-11-12T08:16:45.623Z,1006.03
2018-11-12T08:17:45.684Z,1005.98
2018-11-12T08:18:45.585Z,1006.00
2018-11-12T08:19:45.568Z,1005.99
2018-11-12T08:20:45.541Z,1005.94
2018-11-12T08:21:45.614Z,1005.96
2018-11-12T08:22:45.504Z,1005.95
2018-11-12T08:23:45.487Z,1005.92
2018-11-12T08:24:45.545Z,1005.86
2018-11-12T08:25:45.442Z,1005.86
2018-11-12T08:26:45.422Z,1005.88
2018-11-12T08:27:45.406Z,1005.94
2018-11-12T08:28:45.381Z,1006.01
2018-11-12T08:29:45.391Z,1006.06
2018-11-12T08:30:45.343Z,1006.04
2018-11-12T08:31:45.323Z,1006.11
2018-11-12T08:32:45.320Z,1006.12
2018-11-12T08:33:45.283Z,1006.12
2018-11-12T08:34:45.264Z,1006.09
2018-11-12T08:35:45.298Z,1006.03
2018-11-12T08:36:45.226Z,1006.00
2018-11-12T08:37:45.201Z,1006.06
2018-11-12T08:38:45.182Z,1006.05
2018-11-12T08:39:45.362Z,1006.00
2018-11-12T08:40:45.236Z,1005.97
2018-11-12T08:41:45.120Z,1005.90
2018-11-12T08:42:45.101Z,1005.89
2018-11-12T08:43:45.082Z,1005.94
2018-11-12T08:44:45.063Z,1005.93
2018-11-12T08:45:45.047Z,1005.95
2018-11-12T08:46:45.020Z,1005.92
2018-11-12T08:47:45.001Z,1005.97
2018-11-12T08:48:45.057Z,1005.92
2018-11-12T08:49:45.109Z,1005.88
2018-11-12T08:50:44.942Z,1005.85
2018-11-12T08:51:44.920Z,1005.84
2018-11-12T08:52:44.900Z,1005.86
2018-11-12T08:53:44.880Z,1005.87
2018-11-12T08:54:44.873Z,1005.88
2018-11-12T08:55:44.954Z,1005.85
2018-11-12T08:56:44.840Z,1005.69
2018-11-12T08:57:44.802Z,1005.63
2018-11-12T08:58:44.784Z,1005.63
2018-11-12T08:59:44.809Z,1005.60
2018-11-12T09:00:44.779Z,1005.60
2018-11-12T09:01:44.721Z,1005.67
2018-11-12T09:02:44.713Z,1005.64
2018-11-12T09:03:44.681Z,1005.66
2018-11-12T09:04:44.669Z,1005.68
2018-11-12T09:05:44.664Z,1005.65
2018-11-12T09:06:44.623Z,1005.64
2018-11-12T09:07:44.605Z,1005.63
2018-11-12T09:08:44.581Z,1005.59
2018-11-12T09:09:44.562Z,1005.51
2018-11-12T09:10:44.542Z,1005.53
2018-11-12T09:11:44.523Z,1005.71
2018-11-12T09:12:44.977Z,1005.68
2018-11-12T09:13:44.893Z,1005.66
2018-11-12T09:14:44.463Z,1005.62
2018-11-12T09:15:44.518Z,1005.54
2018-11-12T09:16:44.421Z,1005.48
2018-11-12T09:17:44.414Z,1005.58
2018-11-12T09:18:44.383Z,1005.61
2018-11-12T09:19:44.363Z,1005.64
2018-11-12T09:20:44.342Z,1005.63
2018-11-12T09:21:44.325Z,1005.63
2018-11-12T09:22:44.319Z,1005.63
2018-11-12T09:23:44.298Z,1005.69
2018-11-12T09:24:44.264Z,1005.69
2018-11-12T09:25:44.243Z,1005.62
2018-11-12T09:26:44.223Z,1005.64
2018-11-12T09:27:44.206Z,1005.61
2018-11-12T09:28:44.185Z,1005.57
2018-11-12T09:29:44.164Z,1005.54
2018-11-12T09:30:45.230Z,1005.53
2018-11-12T09:31:44.125Z,1005.57
2018-11-12T09:32:44.434Z,1005.64
2018-11-12T09:33:44.137Z,1005.66
2018-11-12T09:34:44.067Z,1005.68
2018-11-12T09:35:44.047Z,1005.73
2018-11-12T09:36:44.116Z,1005.75
2018-11-12T09:37:44.007Z,1005.66
2018-11-12T09:38:44.054Z,1005.52
2018-11-12T09:39:43.969Z,1005.49
2018-11-12T09:40:43.947Z,1005.49
2018-11-12T09:41:43.959Z,1005.50
2018-11-12T09:42:43.943Z,1005.52
2018-11-12T09:43:43.888Z,1005.51
2018-11-12T09:44:43.872Z,1005.52
2018-11-12T09:45:43.898Z,1005.55
2018-11-12T09:46:43.832Z,1005.54
2018-11-12T09:47:43.835Z,1005.50
2018-11-12T09:48:43.810Z,1005.54
2018-11-12T09:49:43.775Z,1005.52
2018-11-12T09:50:43.752Z,1005.52
2018-11-12T09:51:43.733Z,1005.49
2018-11-12T09:52:43.715Z,1005.54
2018-11-12T09:53:43.755Z,1005.55
2018-11-12T09:54:43.727Z,1005.51
2018-11-12T09:55:43.655Z,1005.53
2018-11-12T09:56:43.636Z,1005.48
2018-11-12T09:57:43.618Z,1005.45
2018-11-12T09:58:43.596Z,1005.46
2018-11-12T09:59:43.578Z,1005.47
2018-11-12T10:00:43.810Z,1005.53
2018-11-12T10:01:44.136Z,1005.49
2018-11-12T10:02:44.881Z,1005.49
2018-11-12T10:03:44.486Z,1005.44
2018-11-12T10:04:45.092Z,1005.43
2018-11-12T10:05:44.509Z,1005.41
2018-11-12T10:06:45.252Z,1005.36
2018-11-12T10:07:44.755Z,1005.33
2018-11-12T10:08:44.700Z,1005.35
2018-11-12T10:09:45.845Z,1005.25
2018-11-12T10:10:45.498Z,1005.26
2018-11-12T10:11:45.650Z,1005.22
2018-11-12T10:12:45.658Z,1005.18
2018-11-12T10:13:47.196Z,1005.26
2018-11-12T10:14:46.060Z,1005.32
2018-11-12T10:15:45.788Z,1005.29
2018-11-12T10:16:45.823Z,1005.30
2018-11-12T10:17:45.383Z,1005.30
2018-11-12T10:18:43.210Z,1005.28
2018-11-12T10:19:43.262Z,1005.31
2018-11-12T10:20:43.171Z,1005.37
2018-11-12T10:21:43.153Z,1005.35
2018-11-12T10:22:43.136Z,1005.38
2018-11-12T10:23:43.114Z,1005.38
2018-11-12T10:24:43.095Z,1005.41
2018-11-12T10:25:43.076Z,1005.41
2018-11-12T10:26:43.056Z,1005.48
2018-11-12T10:27:43.039Z,1005.47
2018-11-12T10:28:43.017Z,1005.50
2018-11-12T10:29:43.002Z,1005.56
2018-11-12T10:30:42.978Z,1005.57
2018-11-12T10:31:42.962Z,1005.46
2018-11-12T10:32:42.942Z,1005.42
2018-11-12T10:33:42.922Z,1005.35
2018-11-12T10:34:42.902Z,1005.32
2018-11-12T10:35:42.883Z,1005.32
2018-11-12T10:36:42.865Z,1005.35
2018-11-12T10:37:42.846Z,1005.37
2018-11-12T10:38:42.831Z,1005.32
2018-11-12T10:39:42.811Z,1005.38
2018-11-12T10:40:42.839Z,1005.36
2018-11-12T10:41:42.768Z,1005.32
2018-11-12T10:42:42.820Z,1005.37
2018-11-12T10:43:42.731Z,1005.36
2018-11-12T10:44:42.938Z,1005.30
2018-11-12T10:45:42.692Z,1005.33
2018-11-12T10:46:42.673Z,1005.33
2018-11-12T10:47:42.659Z,1005.27
2018-11-12T10:48:42.633Z,1005.30
2018-11-12T10:49:42.615Z,1005.28
2018-11-12T10:50:42.595Z,1005.29
2018-11-12T10:51:42.586Z,1005.37
2018-11-12T10:52:42.560Z,1005.51
2018-11-12T10:53:50.041Z,1005.42
2018-11-12T10:54:42.625Z,1005.42
2018-11-12T10:55:42.646Z,1005.36
2018-11-12T10:56:42.483Z,1005.39
2018-11-12T10:57:42.462Z,1005.41
2018-11-12T10:58:42.444Z,1005.43
2018-11-12T10:59:42.472Z,1005.42
2018-11-12T11:00:42.439Z,1005.37
2018-11-12T11:01:42.389Z,1005.39
2018-11-12T11:02:42.367Z,1005.49
2018-11-12T11:03:42.347Z,1005.49
2018-11-12T11:04:42.356Z,1005.47
2018-11-12T11:05:42.312Z,1005.42
2018-11-12T11:06:42.296Z,1005.34
2018-11-12T11:07:42.274Z,1005.33
2018-11-12T11:08:42.253Z,1005.35
2018-11-12T11:09:42.236Z,1005.35
2018-11-12T11:10:42.215Z,1005.33
2018-11-12T11:11:42.196Z,1005.27
2018-11-12T11:12:42.179Z,1005.31
2018-11-12T11:13:42.180Z,1005.32
2018-11-12T11:14:42.140Z,1005.36
2018-11-12T11:15:42.989Z,1005.42
2018-11-12T11:16:42.104Z,1005.42
2018-11-12T11:17:42.083Z,1005.38
2018-11-12T11:18:42.087Z,1005.38
2018-11-12T11:19:42.052Z,1005.33
2018-11-12T11:20:42.030Z,1005.34
2018-11-12T11:21:42.007Z,1005.30
2018-11-12T11:22:41.992Z,1005.32
2018-11-12T11:23:41.970Z,1005.29
2018-11-12T11:24:41.951Z,1005.33
2018-11-12T11:25:41.947Z,1005.38
2018-11-12T11:26:41.956Z,1005.42
2018-11-12T11:27:41.916Z,1005.46
2018-11-12T11:28:41.873Z,1005.54
2018-11-12T11:29:41.853Z,1005.56
2018-11-12T11:30:41.835Z,1005.59
2018-11-12T11:31:41.841Z,1005.64
2018-11-12T11:32:41.798Z,1005.66
2018-11-12T11:33:41.778Z,1005.62
2018-11-12T11:34:41.759Z,1005.59
2018-11-12T11:35:41.739Z,1005.57
2018-11-12T11:36:41.720Z,1005.57
2018-11-12T11:37:41.704Z,1005.60
2018-11-12T11:38:41.683Z,1005.62
2018-11-12T11:39:41.663Z,1005.65
2018-11-12T11:40:41.694Z,1005.62
2018-11-12T11:41:41.623Z,1005.64
2018-11-12T11:42:41.606Z,1005.65
2018-11-12T11:43:41.587Z,1005.65
2018-11-12T11:44:41.568Z,1005.59
2018-11-12T11:45:41.549Z,1005.56
2018-11-12T11:46:41.530Z,1005.54
2018-11-12T11:47:41.612Z,1005.52
2018-11-12T11:48:41.497Z,1005.48
2018-11-12T11:49:41.481Z,1005.48
2018-11-12T11:50:41.468Z,1005.48
2018-11-12T11:51:41.459Z,1005.51
2018-11-12T11:52:41.414Z,1005.51
2018-11-12T11:53:41.396Z,1005.50
2018-11-12T11:54:41.376Z,1005.47
2018-11-12T11:55:41.358Z,1005.49
2018-11-12T11:56:41.467Z,1005.50
2018-11-12T11:57:41.451Z,1005.49
2018-11-12T11:58:41.300Z,1005.47
2018-11-12T11:59:41.282Z,1005.48
2018-11-12T12:00:41.262Z,1005.51
2018-11-12T12:01:41.250Z,1005.52
2018-11-12T12:02:41.276Z,1005.54
2018-11-12T12:03:41.206Z,1005.57
2018-11-12T12:04:41.188Z,1005.56
2018-11-12T12:05:41.168Z,1005.56